PWSweather.com
Personal Weather Stations
Station Observations
KWABLAIN13
Ptl Weather, Blaine, WA

Ptl WeatherBlaine, WA

Lat: 48.997393, Lon: -122.748614

Elevation: 57

Station Type: Davis Advantage Pro 2

http://www.ptlnet.net

High Low Average
Temperature 56.2°F13.4°F 46.9°F8.3°F 50.5°F10.3°F
Dew Point 49.1°F9.5°F 45.2°F7.3°F 46.6°F8.1°F
Winds 11.0 mph SSE17.7 mph SSE Calm Calm 3.8 mph 6.1 mph
Wind Gusts 19.0 mph30.6 mph -- 7.8 mph12.6 mph
Humidity 95% 68% 87%
Pressure 29.91 in1012.90 in 29.75 in1007.50 in -
Precipitation 1.33 in33.80 in - -
Hour Temp Dew Point Humidity Winds Wind Gusts Pressure Precip Precip Rate Daily Precip Total
12:05 AM 50.7°F10.4°C 47.6°F8.7°C 89% 5.0 mph SE8.0 kmh SE 13.0 mph20.9 kmh 29.90 in1012.5 mb 0.00 in0.0 mm 0.00 in0.0 mm 0.00 in0.0 mm
12:10 AM 50.6°F10.3°C 47.5°F8.6°C 89% 2.0 mph SSE3.2 kmh SSE 13.0 mph20.9 kmh 29.90 in1012.5 mb 0.00 in0.0 mm 0.00 in0.0 mm 0.00 in0.0 mm
12:24 AM 50.6°F10.3°C 47.5°F8.6°C 89% 3.0 mph SSE4.8 kmh SSE 6.0 mph9.7 kmh 29.90 in1012.5 mb 0.00 in0.0 mm 0.00 in0.0 mm 0.00 in0.0 mm
12:30 AM 50.6°F10.3°C 47.5°F8.6°C 89% 3.0 mph SSE4.8 kmh SSE 3.0 mph4.8 kmh 29.91 in1012.9 mb 0.00 in0.0 mm 0.00 in0.0 mm 0.00 in0.0 mm
12:45 AM 50.6°F10.3°C 47.5°F8.6°C 89% 4.0 mph SE6.4 kmh SE 7.0 mph11.3 kmh 29.91 in1012.9 mb 0.00 in0.0 mm 0.00 in0.0 mm 0.00 in0.0 mm
12:50 AM 50.6°F10.3°C 47.5°F8.6°C 89% 4.0 mph SSE6.4 kmh SSE 4.0 mph6.4 kmh 29.91 in1012.9 mb 0.00 in0.0 mm 0.00 in0.0 mm 0.00 in0.0 mm
01:05 AM 50.6°F10.3°C 47.2°F8.4°C 88% 6.0 mph SSE9.7 kmh SSE 8.0 mph12.9 kmh 29.91 in1012.9 mb 0.00 in0.0 mm 0.00 in0.0 mm 0.00 in0.0 mm
01:10 AM 50.6°F10.3°C 47.2°F8.4°C 88% 3.0 mph SE4.8 kmh SE 8.0 mph12.9 kmh 29.91 in1012.9 mb 0.00 in0.0 mm 0.00 in0.0 mm 0.00 in0.0 mm
01:25 AM 50.5°F10.3°C 47.1°F8.4°C 88% 8.0 mph SSE12.9 kmh SSE 15.0 mph24.1 kmh 29.91 in1012.9 mb 0.00 in0.0 mm 0.00 in0.0 mm 0.00 in0.0 mm
01:30 AM 50.5°F10.3°C 47.1°F8.4°C 88% 10.0 mph SE16.1 kmh SE 11.0 mph17.7 kmh 29.91 in1012.9 mb 0.00 in0.0 mm 0.00 in0.0 mm 0.00 in0.0 mm
01:45 AM 50.3°F10.2°C 47.2°F8.4°C 89% 4.0 mph SE6.4 kmh SE 9.0 mph14.5 kmh 29.91 in1012.9 mb 0.01 in0.3 mm 0.04 in1.0 mm 0.01 in0.3 mm
01:50 AM 50.1°F10.1°C 47.3°F8.5°C 90% 3.0 mph SE4.8 kmh SE 9.0 mph14.5 kmh 29.91 in1012.9 mb 0.01 in0.3 mm 0.00 in0.0 mm 0.01 in0.3 mm
02:05 AM 49.9°F9.9°C 47.1°F8.4°C 90% 3.0 mph S4.8 kmh S 9.0 mph14.5 kmh 29.91 in1012.9 mb 0.01 in0.3 mm 0.00 in0.0 mm 0.01 in0.3 mm
02:10 AM 49.9°F9.9°C 47.1°F8.4°C 90% 6.0 mph ESE9.7 kmh ESE 10.0 mph16.1 kmh 29.91 in1012.9 mb 0.01 in0.3 mm 0.00 in0.0 mm 0.01 in0.3 mm
02:25 AM 50.1°F10.1°C 47.0°F8.3°C 89% 2.0 mph SSE3.2 kmh SSE 7.0 mph11.3 kmh 29.91 in1012.9 mb 0.01 in0.3 mm 0.00 in0.0 mm 0.01 in0.3 mm
02:29 AM 50.1°F10.1°C 47.0°F8.3°C 89% 3.0 mph S4.8 kmh S 7.0 mph11.3 kmh 29.90 in1012.5 mb 0.01 in0.3 mm 0.00 in0.0 mm 0.01 in0.3 mm
02:45 AM 50.1°F10.1°C 47.0°F8.3°C 89% 3.0 mph SSE4.8 kmh SSE 6.0 mph9.7 kmh 29.91 in1012.9 mb 0.01 in0.3 mm 0.00 in0.0 mm 0.01 in0.3 mm
02:50 AM 50.0°F10.0°C 46.9°F8.3°C 89% 2.0 mph SSE3.2 kmh SSE 6.0 mph9.7 kmh 29.91 in1012.9 mb 0.01 in0.3 mm 0.00 in0.0 mm 0.01 in0.3 mm
03:05 AM 50.0°F10.0°C 46.9°F8.3°C 89% 2.0 mph SSE3.2 kmh SSE 6.0 mph9.7 kmh 29.90 in1012.5 mb 0.00 in0.0 mm 0.00 in0.0 mm 0.01 in0.3 mm
03:10 AM 50.0°F10.0°C 46.9°F8.3°C 89% 1.0 mph SSE1.6 kmh SSE 6.0 mph9.7 kmh 29.90 in1012.5 mb 0.00 in0.0 mm 0.00 in0.0 mm 0.01 in0.3 mm
03:25 AM 52.2°F11.2°C 47.8°F8.8°C 85% 4.0 mph SSW6.4 kmh SSW 6.0 mph9.7 kmh 29.90 in1012.5 mb 0.00 in0.0 mm 0.00 in0.0 mm 0.01 in0.3 mm
03:30 AM 52.2°F11.2°C 48.2°F9.0°C 86% 2.0 mph SSE3.2 kmh SSE 6.0 mph9.7 kmh 29.90 in1012.5 mb 0.00 in0.0 mm 0.00 in0.0 mm 0.01 in0.3 mm
03:45 AM 52.1°F11.2°C 47.7°F8.7°C 85% 2.0 mph SSE3.2 kmh SSE 10.0 mph16.1 kmh 29.90 in1012.5 mb 0.00 in0.0 mm 0.00 in0.0 mm 0.01 in0.3 mm
03:50 AM 52.1°F11.2°C 47.7°F8.7°C 85% Calm Calm 10.0 mph16.1 kmh 29.90 in1012.5 mb 0.00 in0.0 mm 0.00 in0.0 mm 0.01 in0.3 mm
04:05 AM 51.9°F11.1°C 47.9°F8.8°C 86% 3.0 mph SSW4.8 kmh SSW 7.0 mph11.3 kmh 29.89 in1012.2 mb 0.00 in0.0 mm 0.00 in0.0 mm 0.01 in0.3 mm
04:10 AM 51.8°F11.0°C 47.8°F8.8°C 86% 3.0 mph SE4.8 kmh SE 9.0 mph14.5 kmh 29.89 in1012.2 mb 0.00 in0.0 mm 0.00 in0.0 mm 0.01 in0.3 mm
04:24 AM 51.8°F11.0°C 48.1°F8.9°C 87% 2.0 mph S3.2 kmh S 8.0 mph12.9 kmh 29.89 in1012.2 mb 0.00 in0.0 mm 0.00 in0.0 mm 0.01 in0.3 mm
04:30 AM 51.8°F11.0°C 48.1°F8.9°C 87% 4.0 mph S6.4 kmh S 8.0 mph12.9 kmh 29.89 in1012.2 mb 0.00 in0.0 mm 0.00 in0.0 mm 0.01 in0.3 mm
04:45 AM 51.7°F10.9°C 48.0°F8.9°C 87% 3.0 mph SSW4.8 kmh SSW 5.0 mph8.0 kmh 29.89 in1012.2 mb 0.00 in0.0 mm 0.00 in0.0 mm 0.01 in0.3 mm
04:50 AM 51.6°F10.9°C 47.9°F8.8°C 87% 2.0 mph SSW3.2 kmh SSW 3.0 mph4.8 kmh 29.89 in1012.2 mb 0.00 in0.0 mm 0.00 in0.0 mm 0.01 in0.3 mm
05:05 AM 49.8°F9.9°C 47.0°F8.3°C 90% Calm Calm 3.0 mph4.8 kmh 29.89 in1012.2 mb 0.00 in0.0 mm 0.00 in0.0 mm 0.01 in0.3 mm
05:10 AM 49.8°F9.9°C 47.0°F8.3°C 90% 2.0 mph SW3.2 kmh SW 5.0 mph8.0 kmh 29.89 in1012.2 mb 0.01 in0.3 mm 0.12 in3.0 mm 0.02 in0.5 mm
05:25 AM 49.6°F9.8°C 46.8°F8.2°C 90% Calm Calm 4.0 mph6.4 kmh 29.88 in1011.9 mb 0.01 in0.3 mm 0.00 in0.0 mm 0.02 in0.5 mm
05:30 AM 49.6°F9.8°C 47.1°F8.4°C 91% Calm Calm 4.0 mph6.4 kmh 29.88 in1011.9 mb 0.01 in0.3 mm 0.00 in0.0 mm 0.02 in0.5 mm
05:44 AM 49.4°F9.7°C 46.9°F8.3°C 91% 3.0 mph S4.8 kmh S 3.0 mph4.8 kmh 29.88 in1011.9 mb 0.01 in0.3 mm 0.00 in0.0 mm 0.02 in0.5 mm
05:50 AM 49.3°F9.6°C 46.5°F8.1°C 90% 3.0 mph S4.8 kmh S 3.0 mph4.8 kmh 29.88 in1011.9 mb 0.01 in0.3 mm 0.00 in0.0 mm 0.02 in0.5 mm
06:05 AM 49.2°F9.6°C 45.8°F7.7°C 88% 5.0 mph SE8.0 kmh SE 6.0 mph9.7 kmh 29.88 in1011.9 mb 0.01 in0.3 mm 0.00 in0.0 mm 0.02 in0.5 mm
06:09 AM 49.2°F9.6°C 45.8°F7.7°C 88% 3.0 mph SE4.8 kmh SE 6.0 mph9.7 kmh 29.88 in1011.9 mb 0.01 in0.3 mm 0.00 in0.0 mm 0.02 in0.5 mm
06:25 AM 49.2°F9.6°C 45.8°F7.7°C 88% 2.0 mph SSE3.2 kmh SSE 5.0 mph8.0 kmh 29.88 in1011.9 mb 0.00 in0.0 mm 0.00 in0.0 mm 0.02 in0.5 mm
06:29 AM 49.2°F9.6°C 45.8°F7.7°C 88% 1.0 mph SSE1.6 kmh SSE 5.0 mph8.0 kmh 29.88 in1011.9 mb 0.00 in0.0 mm 0.00 in0.0 mm 0.02 in0.5 mm
06:45 AM 49.0°F9.4°C 45.9°F7.7°C 89% Calm Calm 3.0 mph4.8 kmh 29.88 in1011.9 mb 0.00 in0.0 mm 0.00 in0.0 mm 0.02 in0.5 mm
06:50 AM 48.9°F9.4°C 45.8°F7.7°C 89% Calm Calm 3.0 mph4.8 kmh 29.88 in1011.9 mb 0.01 in0.3 mm 0.12 in3.0 mm 0.03 in0.8 mm
07:04 AM 48.8°F9.3°C 46.0°F7.8°C 90% Calm Calm -- 29.88 in1011.9 mb 0.01 in0.3 mm 0.00 in0.0 mm 0.03 in0.8 mm
07:10 AM 48.7°F9.3°C 45.9°F7.7°C 90% Calm Calm -- 29.88 in1011.9 mb 0.01 in0.3 mm 0.00 in0.0 mm 0.03 in0.8 mm
07:25 AM 48.7°F9.3°C 46.5°F8.1°C 92% 2.0 mph NE3.2 kmh NE 2.0 mph3.2 kmh 29.88 in1011.9 mb 0.01 in0.3 mm 0.00 in0.0 mm 0.03 in0.8 mm
07:30 AM 48.6°F9.2°C 46.7°F8.2°C 93% 2.0 mph N3.2 kmh N 4.0 mph6.4 kmh 29.88 in1011.9 mb 0.01 in0.3 mm 0.00 in0.0 mm 0.03 in0.8 mm
07:45 AM 48.4°F9.1°C 46.5°F8.1°C 93% 2.0 mph NE3.2 kmh NE 3.0 mph4.8 kmh 29.88 in1011.9 mb 0.01 in0.3 mm 0.00 in0.0 mm 0.03 in0.8 mm
07:50 AM 48.3°F9.1°C 46.4°F8.0°C 93% 2.0 mph NE3.2 kmh NE 3.0 mph4.8 kmh 29.88 in1011.9 mb 0.01 in0.3 mm 0.00 in0.0 mm 0.03 in0.8 mm
08:05 AM 47.7°F8.7°C 46.1°F7.8°C 94% 1.0 mph N1.6 kmh N 4.0 mph6.4 kmh 29.88 in1011.9 mb 0.01 in0.3 mm 0.00 in0.0 mm 0.03 in0.8 mm
08:10 AM 47.6°F8.7°C 46.0°F7.8°C 94% 3.0 mph NE4.8 kmh NE 4.0 mph6.4 kmh 29.88 in1011.9 mb 0.01 in0.3 mm 0.00 in0.0 mm 0.03 in0.8 mm
08:25 AM 47.3°F8.5°C 45.7°F7.6°C 94% 2.0 mph NE3.2 kmh NE 4.0 mph6.4 kmh 29.88 in1011.9 mb 0.01 in0.3 mm 0.00 in0.0 mm 0.03 in0.8 mm
08:30 AM 47.2°F8.4°C 45.6°F7.6°C 94% 3.0 mph NE4.8 kmh NE 5.0 mph8.0 kmh 29.88 in1011.9 mb 0.01 in0.3 mm 0.00 in0.0 mm 0.03 in0.8 mm
08:45 AM 47.1°F8.4°C 45.5°F7.5°C 94% 5.0 mph ENE8.0 kmh ENE 6.0 mph9.7 kmh 29.87 in1011.5 mb 0.01 in0.3 mm 0.00 in0.0 mm 0.03 in0.8 mm
08:50 AM 47.0°F8.3°C 45.4°F7.4°C 94% 4.0 mph NE6.4 kmh NE 8.0 mph12.9 kmh 29.88 in1011.9 mb 0.01 in0.3 mm 0.00 in0.0 mm 0.03 in0.8 mm
09:05 AM 47.1°F8.4°C 45.5°F7.5°C 94% 2.0 mph N3.2 kmh N 5.0 mph8.0 kmh 29.87 in1011.5 mb 0.00 in0.0 mm 0.00 in0.0 mm 0.03 in0.8 mm
09:10 AM 47.0°F8.3°C 45.4°F7.4°C 94% Calm Calm 5.0 mph8.0 kmh 29.87 in1011.5 mb 0.00 in0.0 mm 0.00 in0.0 mm 0.03 in0.8 mm
09:25 AM 47.1°F8.4°C 45.2°F7.3°C 93% 3.0 mph NNE4.8 kmh NNE 5.0 mph8.0 kmh 29.87 in1011.5 mb 0.01 in0.3 mm 0.04 in1.0 mm 0.04 in1.0 mm
09:30 AM 47.2°F8.4°C 45.3°F7.4°C 93% 2.0 mph NNE3.2 kmh NNE 5.0 mph8.0 kmh 29.87 in1011.5 mb 0.01 in0.3 mm 0.00 in0.0 mm 0.04 in1.0 mm
09:45 AM 47.5°F8.6°C 45.3°F7.4°C 92% 4.0 mph NE6.4 kmh NE 7.0 mph11.3 kmh 29.87 in1011.5 mb 0.01 in0.3 mm 0.00 in0.0 mm 0.04 in1.0 mm
09:50 AM 47.6°F8.7°C 45.4°F7.4°C 92% 6.0 mph NE9.7 kmh NE 6.0 mph9.7 kmh 29.87 in1011.5 mb 0.01 in0.3 mm 0.00 in0.0 mm 0.04 in1.0 mm
10:05 AM 47.7°F8.7°C 45.5°F7.5°C 92% 4.0 mph NNE6.4 kmh NNE 7.0 mph11.3 kmh 29.87 in1011.5 mb 0.01 in0.3 mm 0.00 in0.0 mm 0.04 in1.0 mm
10:10 AM 47.8°F8.8°C 45.6°F7.6°C 92% 9.0 mph N14.5 kmh N 9.0 mph14.5 kmh 29.87 in1011.5 mb 0.01 in0.3 mm 0.00 in0.0 mm 0.04 in1.0 mm
10:24 AM 48.3°F9.1°C 46.1°F7.8°C 92% 3.0 mph NE4.8 kmh NE 10.0 mph16.1 kmh 29.86 in1011.2 mb 0.01 in0.3 mm 0.00 in0.0 mm 0.04 in1.0 mm
10:29 AM 48.5°F9.2°C 46.6°F8.1°C 93% 3.0 mph N4.8 kmh N 10.0 mph16.1 kmh 29.87 in1011.5 mb 0.01 in0.3 mm 0.00 in0.0 mm 0.04 in1.0 mm
10:44 AM 48.8°F9.3°C 46.6°F8.1°C 92% 8.0 mph NNE12.9 kmh NNE 8.0 mph12.9 kmh 29.87 in1011.5 mb 0.00 in0.0 mm 0.00 in0.0 mm 0.04 in1.0 mm
10:50 AM 48.9°F9.4°C 46.7°F8.2°C 92% 4.0 mph NNE6.4 kmh NNE 9.0 mph14.5 kmh 29.86 in1011.2 mb 0.00 in0.0 mm 0.00 in0.0 mm 0.04 in1.0 mm
11:05 AM 49.4°F9.7°C 46.9°F8.3°C 91% 3.0 mph N4.8 kmh N 9.0 mph14.5 kmh 29.86 in1011.2 mb 0.00 in0.0 mm 0.00 in0.0 mm 0.04 in1.0 mm
11:10 AM 49.7°F9.8°C 47.2°F8.4°C 91% 7.0 mph N11.3 kmh N 10.0 mph16.1 kmh 29.86 in1011.2 mb 0.00 in0.0 mm 0.00 in0.0 mm 0.04 in1.0 mm
11:25 AM 50.0°F10.0°C 47.2°F8.4°C 90% 3.0 mph NW4.8 kmh NW 7.0 mph11.3 kmh 29.86 in1011.2 mb 0.00 in0.0 mm 0.00 in0.0 mm 0.04 in1.0 mm
11:30 AM 50.1°F10.1°C 47.3°F8.5°C 90% 2.0 mph W3.2 kmh W 7.0 mph11.3 kmh 29.86 in1011.2 mb 0.00 in0.0 mm 0.00 in0.0 mm 0.04 in1.0 mm
11:45 AM 50.4°F10.2°C 47.6°F8.7°C 90% 5.0 mph NW8.0 kmh NW 7.0 mph11.3 kmh 29.86 in1011.2 mb 0.00 in0.0 mm 0.00 in0.0 mm 0.04 in1.0 mm
11:50 AM 50.5°F10.3°C 47.7°F8.7°C 90% 5.0 mph NNW8.0 kmh NNW 5.0 mph8.0 kmh 29.86 in1011.2 mb 0.00 in0.0 mm 0.00 in0.0 mm 0.04 in1.0 mm
12:05 PM 51.5°F10.8°C 48.7°F9.3°C 90% 1.0 mph NE1.6 kmh NE 8.0 mph12.9 kmh 29.85 in1010.8 mb 0.00 in0.0 mm 0.00 in0.0 mm 0.04 in1.0 mm
12:10 PM 52.0°F11.1°C 48.6°F9.2°C 88% 3.0 mph SSE4.8 kmh SSE 4.0 mph6.4 kmh 29.85 in1010.8 mb 0.00 in0.0 mm 0.00 in0.0 mm 0.04 in1.0 mm
12:24 PM 52.7°F11.5°C 48.6°F9.2°C 86% 1.0 mph E1.6 kmh E 8.0 mph12.9 kmh 29.85 in1010.8 mb 0.00 in0.0 mm 0.00 in0.0 mm 0.04 in1.0 mm
12:29 PM 53.0°F11.7°C 48.9°F9.4°C 86% 1.0 mph NW1.6 kmh NW 8.0 mph12.9 kmh 29.84 in1010.5 mb 0.00 in0.0 mm 0.00 in0.0 mm 0.04 in1.0 mm
12:44 PM 54.1°F12.3°C 48.4°F9.1°C 81% 9.0 mph E14.5 kmh E 9.0 mph14.5 kmh 29.84 in1010.5 mb 0.00 in0.0 mm 0.00 in0.0 mm 0.04 in1.0 mm
12:49 PM 54.4°F12.4°C 48.4°F9.1°C 80% 4.0 mph SSE6.4 kmh SSE 9.0 mph14.5 kmh 29.83 in1010.2 mb 0.00 in0.0 mm 0.00 in0.0 mm 0.04 in1.0 mm
01:05 PM 54.8°F12.7°C 48.1°F8.9°C 78% 3.0 mph ESE4.8 kmh ESE 7.0 mph11.3 kmh 29.83 in1010.2 mb 0.00 in0.0 mm 0.00 in0.0 mm 0.04 in1.0 mm
01:10 PM 55.0°F12.8°C 47.9°F8.8°C 77% 5.0 mph SE8.0 kmh SE 7.0 mph11.3 kmh 29.82 in1009.8 mb 0.00 in0.0 mm 0.00 in0.0 mm 0.04 in1.0 mm
01:25 PM 55.7°F13.2°C 48.3°F9.1°C 76% 1.0 mph SE1.6 kmh SE 6.0 mph9.7 kmh 29.82 in1009.8 mb 0.00 in0.0 mm 0.00 in0.0 mm 0.04 in1.0 mm
01:30 PM 55.8°F13.2°C 48.0°F8.9°C 75% 3.0 mph ESE4.8 kmh ESE 6.0 mph9.7 kmh 29.82 in1009.8 mb 0.00 in0.0 mm 0.00 in0.0 mm 0.04 in1.0 mm
01:45 PM 55.8°F13.2°C 49.1°F9.5°C 78% 3.0 mph WSW4.8 kmh WSW 4.0 mph6.4 kmh 29.81 in1009.5 mb 0.00 in0.0 mm 0.00 in0.0 mm 0.04 in1.0 mm
01:50 PM 55.8°F13.2°C 49.1°F9.5°C 78% 2.0 mph W3.2 kmh W 2.0 mph3.2 kmh 29.81 in1009.5 mb 0.00 in0.0 mm 0.00 in0.0 mm 0.04 in1.0 mm
02:05 PM 55.9°F13.3°C 47.7°F8.7°C 74% 7.0 mph SSE11.3 kmh SSE 11.0 mph17.7 kmh 29.81 in1009.5 mb 0.00 in0.0 mm 0.00 in0.0 mm 0.04 in1.0 mm
02:10 PM 56.0°F13.3°C 46.7°F8.2°C 71% 3.0 mph SE4.8 kmh SE 4.0 mph6.4 kmh 29.81 in1009.5 mb 0.00 in0.0 mm 0.00 in0.0 mm 0.04 in1.0 mm
02:25 PM 56.1°F13.4°C 46.8°F8.2°C 71% 4.0 mph SW6.4 kmh SW 9.0 mph14.5 kmh 29.81 in1009.5 mb 0.00 in0.0 mm 0.00 in0.0 mm 0.04 in1.0 mm
02:30 PM 56.2°F13.4°C 47.3°F8.5°C 72% 7.0 mph ESE11.3 kmh ESE 7.0 mph11.3 kmh 29.81 in1009.5 mb 0.00 in0.0 mm 0.00 in0.0 mm 0.04 in1.0 mm
02:45 PM 56.1°F13.4°C 46.1°F7.8°C 69% 6.0 mph SSE9.7 kmh SSE 13.0 mph20.9 kmh 29.80 in1009.1 mb 0.00 in0.0 mm 0.00 in0.0 mm 0.04 in1.0 mm
02:50 PM 56.2°F13.4°C 46.6°F8.1°C 70% 5.0 mph SSE8.0 kmh SSE 5.0 mph8.0 kmh 29.80 in1009.1 mb 0.00 in0.0 mm 0.00 in0.0 mm 0.04 in1.0 mm
03:05 PM 56.0°F13.3°C 46.0°F7.8°C 69% 4.0 mph SSE6.4 kmh SSE 12.0 mph19.3 kmh 29.80 in1009.1 mb 0.00 in0.0 mm 0.00 in0.0 mm 0.04 in1.0 mm
03:10 PM 56.0°F13.3°C 45.6°F7.6°C 68% 7.0 mph SSE11.3 kmh SSE 12.0 mph19.3 kmh 29.80 in1009.1 mb 0.00 in0.0 mm 0.00 in0.0 mm 0.04 in1.0 mm
03:25 PM 56.0°F13.3°C 46.0°F7.8°C 69% 3.0 mph SE4.8 kmh SE 8.0 mph12.9 kmh 29.79 in1008.8 mb 0.00 in0.0 mm 0.00 in0.0 mm 0.04 in1.0 mm
03:30 PM 56.1°F13.4°C 46.1°F7.8°C 69% 4.0 mph SSE6.4 kmh SSE 11.0 mph17.7 kmh 29.79 in1008.8 mb 0.00 in0.0 mm 0.00 in0.0 mm 0.04 in1.0 mm
03:45 PM 55.7°F13.2°C 46.8°F8.2°C 72% 7.0 mph SSE11.3 kmh SSE 15.0 mph24.1 kmh 29.79 in1008.8 mb 0.00 in0.0 mm 0.00 in0.0 mm 0.04 in1.0 mm
03:50 PM 55.4°F13.0°C 48.0°F8.9°C 76% 9.0 mph S14.5 kmh S 15.0 mph24.1 kmh 29.79 in1008.8 mb 0.00 in0.0 mm 0.00 in0.0 mm 0.04 in1.0 mm
04:04 PM 54.0°F12.2°C 46.3°F7.9°C 75% 11.0 mph SSE17.7 kmh SSE 16.0 mph25.7 kmh 29.79 in1008.8 mb 0.00 in0.0 mm 0.00 in0.0 mm 0.04 in1.0 mm
04:10 PM 53.6°F12.0°C 45.5°F7.5°C 74% 3.0 mph S4.8 kmh S 18.0 mph29.0 kmh 29.78 in1008.5 mb 0.00 in0.0 mm 0.00 in0.0 mm 0.04 in1.0 mm
04:25 PM 52.9°F11.6°C 45.6°F7.6°C 76% 5.0 mph SE8.0 kmh SE 9.0 mph14.5 kmh 29.78 in1008.5 mb 0.00 in0.0 mm 0.00 in0.0 mm 0.04 in1.0 mm
04:30 PM 52.7°F11.5°C 46.0°F7.8°C 78% 9.0 mph SSE14.5 kmh SSE 12.0 mph19.3 kmh 29.78 in1008.5 mb 0.00 in0.0 mm 0.00 in0.0 mm 0.04 in1.0 mm
04:45 PM 52.1°F11.2°C 46.1°F7.8°C 80% 3.0 mph SE4.8 kmh SE 11.0 mph17.7 kmh 29.78 in1008.5 mb 0.00 in0.0 mm 0.00 in0.0 mm 0.04 in1.0 mm
04:49 PM 52.0°F11.1°C 46.7°F8.2°C 82% 4.0 mph SSE6.4 kmh SSE 11.0 mph17.7 kmh 29.78 in1008.5 mb 0.00 in0.0 mm 0.00 in0.0 mm 0.04 in1.0 mm
05:05 PM 52.1°F11.2°C 46.5°F8.1°C 81% 1.0 mph SE1.6 kmh SE 9.0 mph14.5 kmh 29.77 in1008.1 mb 0.01 in0.3 mm 0.01 in0.3 mm 0.05 in1.3 mm
05:09 PM 52.1°F11.2°C 46.5°F8.1°C 81% 5.0 mph SE8.0 kmh SE 9.0 mph14.5 kmh 29.77 in1008.1 mb 0.01 in0.3 mm 0.00 in0.0 mm 0.05 in1.3 mm
05:25 PM 52.3°F11.3°C 46.7°F8.2°C 81% 5.0 mph SSE8.0 kmh SSE 7.0 mph11.3 kmh 29.78 in1008.5 mb 0.01 in0.3 mm 0.00 in0.0 mm 0.05 in1.3 mm
05:30 PM 52.3°F11.3°C 46.7°F8.2°C 81% 6.0 mph SE9.7 kmh SE 11.0 mph17.7 kmh 29.77 in1008.1 mb 0.01 in0.3 mm 0.00 in0.0 mm 0.05 in1.3 mm
05:44 PM 52.2°F11.2°C 47.2°F8.4°C 83% 3.0 mph S4.8 kmh S 7.0 mph11.3 kmh 29.77 in1008.1 mb 0.01 in0.3 mm 0.00 in0.0 mm 0.05 in1.3 mm
05:50 PM 52.0°F11.1°C 47.0°F8.3°C 83% 3.0 mph SE4.8 kmh SE 9.0 mph14.5 kmh 29.77 in1008.1 mb 0.01 in0.3 mm 0.00 in0.0 mm 0.05 in1.3 mm
06:05 PM 51.5°F10.8°C 46.8°F8.2°C 84% 5.0 mph SE8.0 kmh SE 11.0 mph17.7 kmh 29.77 in1008.1 mb 0.00 in0.0 mm 0.00 in0.0 mm 0.05 in1.3 mm
06:10 PM 51.3°F10.7°C 46.6°F8.1°C 84% 2.0 mph SE3.2 kmh SE 2.0 mph3.2 kmh 29.77 in1008.1 mb 0.00 in0.0 mm 0.00 in0.0 mm 0.05 in1.3 mm
06:25 PM 50.9°F10.5°C 46.6°F8.1°C 85% 2.0 mph SE3.2 kmh SE 12.0 mph19.3 kmh 29.76 in1007.8 mb 0.01 in0.3 mm 0.04 in1.0 mm 0.06 in1.5 mm
06:29 PM 50.8°F10.4°C 46.8°F8.2°C 86% 3.0 mph SSE4.8 kmh SSE 12.0 mph19.3 kmh 29.76 in1007.8 mb 0.01 in0.3 mm 0.00 in0.0 mm 0.06 in1.5 mm
06:45 PM 50.5°F10.3°C 46.2°F7.9°C 85% 3.0 mph S4.8 kmh S 11.0 mph17.7 kmh 29.76 in1007.8 mb 0.01 in0.3 mm 0.00 in0.0 mm 0.06 in1.5 mm
06:49 PM 50.5°F10.3°C 46.5°F8.1°C 86% 10.0 mph SSE16.1 kmh SSE 18.0 mph29.0 kmh 29.76 in1007.8 mb 0.01 in0.3 mm 0.00 in0.0 mm 0.06 in1.5 mm
07:05 PM 50.4°F10.2°C 45.8°F7.7°C 84% 5.0 mph SE8.0 kmh SE 19.0 mph30.6 kmh 29.76 in1007.8 mb 0.01 in0.3 mm 0.00 in0.0 mm 0.06 in1.5 mm
07:10 PM 50.3°F10.2°C 45.7°F7.6°C 84% 5.0 mph ESE8.0 kmh ESE 5.0 mph8.0 kmh 29.76 in1007.8 mb 0.01 in0.3 mm 0.00 in0.0 mm 0.06 in1.5 mm
07:25 PM 50.0°F10.0°C 46.0°F7.8°C 86% 2.0 mph SE3.2 kmh SE 9.0 mph14.5 kmh 29.76 in1007.8 mb 0.01 in0.3 mm 0.00 in0.0 mm 0.06 in1.5 mm
07:30 PM 49.9°F9.9°C 45.9°F7.7°C 86% 6.0 mph S9.7 kmh S 15.0 mph24.1 kmh 29.76 in1007.8 mb 0.01 in0.3 mm 0.00 in0.0 mm 0.06 in1.5 mm
07:45 PM 49.3°F9.6°C 45.9°F7.7°C 88% 8.0 mph S12.9 kmh S 10.0 mph16.1 kmh 29.75 in1007.5 mb 0.01 in0.3 mm 0.00 in0.0 mm 0.06 in1.5 mm
07:50 PM 49.1°F9.5°C 46.0°F7.8°C 89% 7.0 mph SE11.3 kmh SE 10.0 mph16.1 kmh 29.76 in1007.8 mb 0.01 in0.3 mm 0.00 in0.0 mm 0.06 in1.5 mm
08:05 PM 48.7°F9.3°C 45.9°F7.7°C 90% 4.0 mph S6.4 kmh S 10.0 mph16.1 kmh 29.76 in1007.8 mb 0.01 in0.3 mm 0.00 in0.0 mm 0.06 in1.5 mm
08:10 PM 48.7°F9.3°C 45.9°F7.7°C 90% 5.0 mph SE8.0 kmh SE 5.0 mph8.0 kmh 29.76 in1007.8 mb 0.01 in0.3 mm 0.00 in0.0 mm 0.06 in1.5 mm
08:25 PM 48.4°F9.1°C 45.9°F7.7°C 91% 5.0 mph SSE8.0 kmh SSE 12.0 mph19.3 kmh 29.76 in1007.8 mb 0.01 in0.3 mm 0.00 in0.0 mm 0.06 in1.5 mm
08:30 PM 48.3°F9.1°C 45.8°F7.7°C 91% 3.0 mph SSE4.8 kmh SSE 12.0 mph19.3 kmh 29.75 in1007.5 mb 0.01 in0.3 mm 0.00 in0.0 mm 0.06 in1.5 mm
08:44 PM 48.1°F8.9°C 45.9°F7.7°C 92% 8.0 mph SE12.9 kmh SE 8.0 mph12.9 kmh 29.76 in1007.8 mb 0.02 in0.5 mm 0.04 in1.0 mm 0.07 in1.8 mm
08:50 PM 48.1°F8.9°C 45.9°F7.7°C 92% 5.0 mph SE8.0 kmh SE 8.0 mph12.9 kmh 29.75 in1007.5 mb 0.02 in0.5 mm 0.00 in0.0 mm 0.07 in1.8 mm
09:05 PM 47.9°F8.8°C 46.0°F7.8°C 93% 3.0 mph SE4.8 kmh SE 10.0 mph16.1 kmh 29.76 in1007.8 mb 0.02 in0.5 mm 0.00 in0.0 mm 0.07 in1.8 mm
09:10 PM 47.9°F8.8°C 46.0°F7.8°C 93% 3.0 mph SSE4.8 kmh SSE 10.0 mph16.1 kmh 29.76 in1007.8 mb 0.02 in0.5 mm 0.00 in0.0 mm 0.07 in1.8 mm
09:25 PM 47.8°F8.8°C 45.9°F7.7°C 93% 6.0 mph SE9.7 kmh SE 7.0 mph11.3 kmh 29.76 in1007.8 mb 0.03 in0.8 mm 0.04 in1.0 mm 0.08 in2.0 mm
09:30 PM 47.8°F8.8°C 46.2°F7.9°C 94% 2.0 mph SE3.2 kmh SE 8.0 mph12.9 kmh 29.76 in1007.8 mb 0.03 in0.8 mm 0.00 in0.0 mm 0.08 in2.0 mm
09:45 PM 47.6°F8.7°C 46.0°F7.8°C 94% Calm Calm 10.0 mph16.1 kmh 29.77 in1008.1 mb 0.03 in0.8 mm 0.00 in0.0 mm 0.08 in2.0 mm
09:50 PM 47.7°F8.7°C 46.1°F7.8°C 94% 3.0 mph S4.8 kmh S 10.0 mph16.1 kmh 29.77 in1008.1 mb 0.03 in0.8 mm 0.00 in0.0 mm 0.08 in2.0 mm
10:05 PM 47.6°F8.7°C 46.0°F7.8°C 94% 2.0 mph SE3.2 kmh SE 10.0 mph16.1 kmh 29.77 in1008.1 mb 0.03 in0.8 mm 0.00 in0.0 mm 0.08 in2.0 mm
10:10 PM 47.5°F8.6°C 45.9°F7.7°C 94% 3.0 mph SE4.8 kmh SE 10.0 mph16.1 kmh 29.77 in1008.1 mb 0.04 in1.0 mm 0.12 in3.0 mm 0.09 in2.3 mm
10:24 PM 47.4°F8.6°C 45.8°F7.7°C 94% 8.0 mph SSE12.9 kmh SSE 9.0 mph14.5 kmh 29.76 in1007.8 mb 0.04 in1.0 mm 0.00 in0.0 mm 0.09 in2.3 mm
10:30 PM 47.4°F8.6°C 45.8°F7.7°C 94% 4.0 mph ESE6.4 kmh ESE 9.0 mph14.5 kmh 29.77 in1008.1 mb 0.04 in1.0 mm 0.00 in0.0 mm 0.09 in2.3 mm
10:45 PM 47.3°F8.5°C 45.9°F7.7°C 95% 6.0 mph SE9.7 kmh SE 6.0 mph9.7 kmh 29.77 in1008.1 mb 0.04 in1.0 mm 0.00 in0.0 mm 0.09 in2.3 mm
10:50 PM 47.2°F8.4°C 45.8°F7.7°C 95% 4.0 mph SE6.4 kmh SE 4.0 mph6.4 kmh 29.77 in1008.1 mb 0.05 in1.3 mm 0.12 in3.0 mm 0.10 in2.5 mm
11:05 PM 47.1°F8.4°C 45.7°F7.6°C 95% 3.0 mph SE4.8 kmh SE 8.0 mph12.9 kmh 29.77 in1008.1 mb 0.05 in1.3 mm 0.00 in0.0 mm 0.10 in2.5 mm
11:10 PM 47.1°F8.4°C 45.7°F7.6°C 95% 3.0 mph SSE4.8 kmh SSE 8.0 mph12.9 kmh 29.77 in1008.1 mb 0.06 in1.5 mm 0.12 in3.0 mm 0.11 in2.8 mm
11:25 PM 47.0°F8.3°C 45.7°F7.6°C 95% 6.0 mph SE9.7 kmh SE 6.0 mph9.7 kmh 29.77 in1008.1 mb 0.06 in1.5 mm 0.00 in0.0 mm 0.11 in2.8 mm
11:29 PM 46.9°F8.3°C 45.6°F7.6°C 95% 5.0 mph ESE8.0 kmh ESE 6.0 mph9.7 kmh 29.77 in1008.1 mb 0.06 in1.5 mm 0.00 in0.0 mm 0.11 in2.8 mm
11:44 PM 46.9°F8.3°C 45.6°F7.6°C 95% 6.0 mph SE9.7 kmh SE 9.0 mph14.5 kmh 29.77 in1008.1 mb 0.05 in1.3 mm 0.00 in0.0 mm 0.11 in2.8 mm
11:50 PM 46.9°F8.3°C 45.6°F7.6°C 95% 6.0 mph SE9.7 kmh SE 9.0 mph14.5 kmh 29.77 in1008.1 mb 0.05 in1.3 mm 0.00 in0.0 mm 0.11 in2.8 mm